Airfield :







YOU CAN JOIN US ON...

 
LOGIN :

Register | Disclaimer

   EN    FR    IT 

 









Legend :    VFR   Marginal VFR   IFR   Intensive IFR   Very Intensive IFR
Visi :
Ceiling :
>= 8 km
>= 3000ft
5 to 8 km
1000 to 3000 ft
1500m to 5 km
500 to 1000 ft
800 to 1500m
200 to 500 ft
< 800m
< 200 ft
Symbols :   Thunderstorms  Fog  Heavy snow  Heavy precipitations  Wind > 20 kt







- Airport Elevation : 489 ft


KHUL - Houlton International

CURRENT METAR :
  • 131453Z AUTO 14005KT 1/4SM SN FZFG VV012 M02/M02 A3017 RMK AO2 SLP225 P0005 60011 T10171022 58022

EXPIRED METARs :
  • 131353Z AUTO 13004KT 1/4SM SN FZFG VV013 M02/M03 A3019 RMK AO2 SLP233 P0003 T10171028
  • 131333Z AUTO 13004KT 1/4SM SN FZFG VV013 M02/M03 A3021 RMK AO2 P0002 T10171028
  • 131253Z AUTO 00000KT 1/4SM -SN FZFG OVC016 M02/M03 A3024 RMK AO2 SLP250 P0003 T10171028

TAF KHUL
Valid from the 13 at 14:00 until the 14 at 12:00 UTC


131347Z 1314/1412 13006KT 1/4SM +SN OVC015
FM131600 15009KT 1SM -SN OVC004
FM132200 11007KT 2SM -RAPLSN OVC004
FM140100 34005KT 2SM -RASN OVC003
FM140300 31012G22KT P6SM VCSH BKN010
FM140500 30015G24KT P6SM SCT010 BKN050
KZBW FIR / North America



MET'MAP, your aeronautical weather chart ! - Copyright ORBIFLY December 2007 - Disclaimer

ORBIFLY MET'MAP TEAM :

Programming & Development : Alexandra Zaïnal
Concept & Development : Baudouin d'Aumeries
Co-Development & Prog : Marc-Olivier Méhu
Technical & hardware support : Manuel Goepfert

Contact : metmap@orbifly.com




SOURCES & CREDITS :

   NOAA